createdAt,value
2018-12-14T00:02:14.031Z,99.90
2018-12-14T00:04:40.398Z,99.90
2018-12-14T00:07:06.474Z,99.90
2018-12-14T00:09:32.785Z,99.90
2018-12-14T00:11:59.051Z,99.90
2018-12-14T00:14:25.288Z,99.90
2018-12-14T00:16:52.467Z,99.90
2018-12-14T00:19:18.673Z,99.90
2018-12-14T00:21:46.545Z,99.90
2018-12-14T00:24:12.922Z,99.90
2018-12-14T00:26:39.311Z,99.90
2018-12-14T00:29:05.529Z,99.90
2018-12-14T00:31:31.672Z,99.90
2018-12-14T00:33:57.717Z,99.90
2018-12-14T00:36:23.758Z,99.90
2018-12-14T00:38:50.102Z,99.90
2018-12-14T00:41:16.341Z,99.90
2018-12-14T00:43:42.443Z,99.90
2018-12-14T00:46:08.675Z,99.90
2018-12-14T00:48:34.970Z,99.90
2018-12-14T00:51:01.335Z,99.90
2018-12-14T00:53:27.491Z,99.90
2018-12-14T00:55:53.511Z,99.90
2018-12-14T00:58:27.124Z,99.90
2018-12-14T01:01:01.514Z,99.90
2018-12-14T01:03:27.803Z,99.90
2018-12-14T01:05:54.097Z,99.90
2018-12-14T01:08:20.229Z,99.90
2018-12-14T01:10:46.332Z,99.90
2018-12-14T01:13:12.680Z,99.90
2018-12-14T01:15:39.196Z,99.90
2018-12-14T01:18:05.563Z,99.90
2018-12-14T01:20:35.863Z,99.90
2018-12-14T01:23:02.127Z,99.90
2018-12-14T01:25:28.333Z,99.90
2018-12-14T01:27:54.426Z,99.90
2018-12-14T01:30:20.646Z,99.90
2018-12-14T01:32:46.966Z,99.90
2018-12-14T01:35:13.246Z,99.90
2018-12-14T01:37:39.556Z,99.90
2018-12-14T01:40:06.298Z,99.90
2018-12-14T01:42:32.539Z,99.90
2018-12-14T01:44:58.742Z,99.90
2018-12-14T01:47:25.110Z,99.90
2018-12-14T01:49:52.210Z,99.90
2018-12-14T01:52:20.498Z,99.90
2018-12-14T01:54:49.619Z,99.90
2018-12-14T01:57:16.087Z,99.90
2018-12-14T01:59:42.170Z,99.90
2018-12-14T02:02:13.959Z,99.90
2018-12-14T02:04:47.308Z,99.90
2018-12-14T02:07:19.731Z,99.90
2018-12-14T02:09:48.021Z,99.90
2018-12-14T02:12:14.236Z,99.90
2018-12-14T02:14:41.234Z,99.90
2018-12-14T02:17:07.578Z,99.90
2018-12-14T02:19:33.875Z,99.90
2018-12-14T02:22:00.091Z,99.90
2018-12-14T02:24:26.297Z,99.90
2018-12-14T02:26:52.450Z,99.90
2018-12-14T02:29:18.759Z,99.90
2018-12-14T02:31:45.063Z,99.90
2018-12-14T02:34:11.233Z,99.90
2018-12-14T02:36:37.443Z,99.90
2018-12-14T02:39:04.251Z,99.90
2018-12-14T02:48:27.643Z,99.90
2018-12-14T02:50:53.964Z,99.90
2018-12-14T02:53:20.263Z,99.90
2018-12-14T02:55:46.367Z,99.90
2018-12-14T02:58:12.526Z,99.90
2018-12-14T03:00:38.846Z,99.90
2018-12-14T03:03:05.047Z,99.90
2018-12-14T03:05:31.406Z,99.90
2018-12-14T03:07:57.710Z,99.90
2018-12-14T03:10:24.071Z,99.90
2018-12-14T03:12:50.162Z,99.90
2018-12-14T03:15:16.475Z,99.90
2018-12-14T03:17:42.727Z,99.90
2018-12-14T03:20:09.614Z,99.90
2018-12-14T03:22:36.053Z,99.90
2018-12-14T03:25:02.523Z,99.90
2018-12-14T03:27:28.697Z,99.90
2018-12-14T03:29:54.878Z,99.90
2018-12-14T03:32:21.115Z,99.90
2018-12-14T03:34:47.242Z,99.90
2018-12-14T03:37:13.424Z,99.90
2018-12-14T03:39:40.315Z,99.90
2018-12-14T03:42:06.426Z,99.90
2018-12-14T03:44:32.599Z,99.90
2018-12-14T03:46:58.919Z,99.90
2018-12-14T03:49:25.119Z,99.90
2018-12-14T03:51:51.482Z,99.90
2018-12-14T03:54:17.696Z,99.90
2018-12-14T03:56:43.877Z,99.90
2018-12-14T03:59:09.878Z,99.90
2018-12-14T04:01:36.234Z,99.90
2018-12-14T04:04:02.316Z,99.90
2018-12-14T04:06:28.509Z,99.90
2018-12-14T04:08:54.764Z,99.90
2018-12-14T04:11:20.999Z,99.90
2018-12-14T04:13:49.508Z,99.90
2018-12-14T04:16:15.860Z,99.90
2018-12-14T04:18:42.050Z,99.90
2018-12-14T04:21:08.281Z,99.90
2018-12-14T04:23:34.502Z,99.90
2018-12-14T04:26:00.596Z,99.90
2018-12-14T04:28:26.766Z,99.90
2018-12-14T04:30:52.950Z,99.90
2018-12-14T04:33:21.352Z,99.90
2018-12-14T04:35:47.762Z,99.90
2018-12-14T04:38:13.840Z,99.90
2018-12-14T04:40:40.098Z,99.90
2018-12-14T04:43:06.439Z,99.90
2018-12-14T04:45:32.544Z,99.90
2018-12-14T04:47:58.823Z,99.90
2018-12-14T04:50:26.077Z,99.90
2018-12-14T04:52:52.505Z,99.90
2018-12-14T04:55:18.812Z,99.90
2018-12-14T04:57:44.961Z,99.90
2018-12-14T05:00:11.206Z,99.90
2018-12-14T05:02:37.222Z,99.90
2018-12-14T05:05:04.063Z,99.90
2018-12-14T05:07:30.258Z,99.90
2018-12-14T05:10:01.160Z,99.90
2018-12-14T05:12:31.545Z,99.90
2018-12-14T05:14:57.930Z,99.90
2018-12-14T05:17:26.314Z,99.90
2018-12-14T05:19:52.485Z,99.90
2018-12-14T05:22:19.000Z,99.90
2018-12-14T05:24:45.177Z,99.90
2018-12-14T05:27:11.597Z,99.90
2018-12-14T05:29:37.691Z,99.90
2018-12-14T05:32:03.895Z,99.90
2018-12-14T05:34:30.148Z,99.90
2018-12-14T05:37:03.264Z,99.90
2018-12-14T05:39:29.597Z,99.90
2018-12-14T05:41:55.698Z,99.90
2018-12-14T05:44:21.928Z,99.90
2018-12-14T05:46:48.162Z,99.90
2018-12-14T05:49:19.588Z,99.90
2018-12-14T05:51:58.971Z,99.90
2018-12-14T05:54:26.109Z,99.90
2018-12-14T05:56:59.815Z,99.90
2018-12-14T05:59:27.135Z,99.90
2018-12-14T06:01:53.469Z,99.90
2018-12-14T06:04:20.809Z,99.90
2018-12-14T06:06:46.882Z,99.90
2018-12-14T06:09:13.258Z,99.90
2018-12-14T06:11:39.430Z,99.90
2018-12-14T06:14:05.485Z,99.90
2018-12-14T06:16:31.764Z,99.90
2018-12-14T06:18:57.891Z,99.90
2018-12-14T06:21:25.487Z,99.90
2018-12-14T06:23:51.835Z,99.90
2018-12-14T06:26:18.010Z,99.90
2018-12-14T06:28:44.113Z,99.90
2018-12-14T06:31:10.254Z,99.90
2018-12-14T06:33:36.313Z,99.90
2018-12-14T06:39:00.076Z,99.90
2018-12-14T06:41:26.262Z,99.90
2018-12-14T06:43:52.506Z,99.90
2018-12-14T06:46:18.613Z,99.90
2018-12-14T06:48:44.736Z,99.90
2018-12-14T06:51:11.202Z,99.90
2018-12-14T06:53:37.360Z,99.90
2018-12-14T06:56:04.666Z,99.90
2018-12-14T06:58:30.937Z,99.90
2018-12-14T07:00:57.134Z,99.90
2018-12-14T07:03:23.505Z,99.90
2018-12-14T07:05:49.886Z,99.90
2018-12-14T07:08:15.969Z,99.90
2018-12-14T07:10:42.030Z,99.90
2018-12-14T07:13:08.151Z,99.90
2018-12-14T07:15:35.071Z,99.90
2018-12-14T07:18:01.491Z,99.90
2018-12-14T07:20:28.091Z,99.90
2018-12-14T07:22:55.470Z,99.90
2018-12-14T07:25:21.917Z,99.90
2018-12-14T07:27:50.217Z,99.90
2018-12-14T07:30:16.446Z,99.90
2018-12-14T07:32:42.919Z,99.90
2018-12-14T07:38:04.202Z,99.90
2018-12-14T07:40:30.496Z,99.90
2018-12-14T07:42:56.716Z,99.90
2018-12-14T07:45:22.798Z,99.90
2018-12-14T07:47:48.885Z,99.90
2018-12-14T07:50:15.129Z,99.90
2018-12-14T07:52:41.870Z,99.90
2018-12-14T07:55:08.118Z,99.90
2018-12-14T07:57:34.333Z,99.90
2018-12-14T08:00:00.607Z,99.90
2018-12-14T08:02:26.712Z,99.90
2018-12-14T08:04:52.768Z,99.90
2018-12-14T08:07:25.772Z,99.90
2018-12-14T08:09:52.183Z,99.90
2018-12-14T08:12:18.499Z,99.90
2018-12-14T08:14:45.896Z,99.90
2018-12-14T08:17:12.148Z,99.90
2018-12-14T08:19:41.183Z,99.90
2018-12-14T08:22:09.534Z,99.90
2018-12-14T08:24:36.941Z,99.90
2018-12-14T08:27:04.411Z,99.90
2018-12-14T08:32:33.863Z,99.90
2018-12-14T08:35:00.046Z,99.90
2018-12-14T08:37:26.386Z,99.90
2018-12-14T08:39:53.237Z,99.90
2018-12-14T08:42:19.490Z,99.90
2018-12-14T08:44:46.087Z,99.90
2018-12-14T08:47:12.519Z,99.90
2018-12-14T08:49:38.698Z,99.90
2018-12-14T08:52:04.848Z,99.90
2018-12-14T08:54:31.030Z,99.90
2018-12-14T08:56:57.331Z,99.90
2018-12-14T08:59:24.497Z,99.90
2018-12-14T09:01:50.708Z,99.90
2018-12-14T09:04:16.808Z,99.90
2018-12-14T09:06:43.067Z,99.90
2018-12-14T09:09:09.319Z,99.90
2018-12-14T09:11:35.506Z,99.90
2018-12-14T09:14:06.119Z,99.90
2018-12-14T09:16:32.478Z,99.90
2018-12-14T09:18:59.764Z,99.90
2018-12-14T09:21:27.025Z,99.90
2018-12-14T09:23:53.202Z,99.90
2018-12-14T09:26:19.531Z,99.90
2018-12-14T09:28:45.958Z,99.90
2018-12-14T09:31:20.774Z,99.90
2018-12-14T09:33:49.049Z,99.90
2018-12-14T09:36:17.318Z,99.90
2018-12-14T09:38:45.712Z,99.90
2018-12-14T09:41:16.248Z,99.90
2018-12-14T09:43:39.760Z,99.90
2018-12-14T09:46:06.426Z,99.90
2018-12-14T09:48:34.741Z,99.90
2018-12-14T09:51:00.968Z,99.90
2018-12-14T09:53:27.297Z,99.90
2018-12-14T09:55:53.528Z,99.90
2018-12-14T09:58:19.874Z,99.90
2018-12-14T10:00:46.324Z,99.90
2018-12-14T10:03:12.861Z,99.90
2018-12-14T10:08:32.978Z,99.90
2018-12-14T10:10:59.498Z,99.90
2018-12-14T10:13:27.535Z,99.90
2018-12-14T10:15:54.263Z,99.90
2018-12-14T10:18:20.605Z,99.90
2018-12-14T10:20:46.939Z,99.90
2018-12-14T10:23:12.978Z,99.90
2018-12-14T10:25:39.353Z,99.90
2018-12-14T10:28:05.851Z,99.90
2018-12-14T10:30:32.161Z,99.90
2018-12-14T10:32:58.516Z,99.90
2018-12-14T10:35:25.730Z,99.90
2018-12-14T10:37:56.127Z,99.90
2018-12-14T10:40:30.452Z,99.90
2018-12-14T10:43:02.854Z,99.90
2018-12-14T10:45:29.411Z,99.80
2018-12-14T10:47:57.804Z,99.90
2018-12-14T10:50:24.042Z,99.90
2018-12-14T10:52:54.210Z,99.90
2018-12-14T10:55:20.590Z,99.90
2018-12-14T10:57:51.409Z,99.90
2018-12-14T11:03:24.415Z,99.90
2018-12-14T11:05:54.645Z,99.90
2018-12-14T11:08:20.987Z,99.90
2018-12-14T11:10:47.756Z,99.90
2018-12-14T11:13:15.288Z,99.90
2018-12-14T11:15:41.402Z,99.90
2018-12-14T11:18:07.820Z,99.90
2018-12-14T11:20:34.152Z,99.90
2018-12-14T11:23:01.393Z,99.90
2018-12-14T11:25:27.694Z,99.90
2018-12-14T11:27:53.951Z,99.40
2018-12-14T11:30:20.223Z,99.50
2018-12-14T11:32:46.256Z,99.60
2018-12-14T11:35:12.642Z,99.20
2018-12-14T11:37:39.078Z,99.40
2018-12-14T11:40:06.471Z,99.80
2018-12-14T11:42:32.603Z,99.80
2018-12-14T11:44:59.867Z,99.90
2018-12-14T11:47:26.047Z,99.90
2018-12-14T11:49:52.381Z,99.90
2018-12-14T11:52:19.147Z,99.50
2018-12-14T11:54:46.268Z,99.10
2018-12-14T11:57:12.499Z,99.20
2018-12-14T11:59:38.759Z,99.60
2018-12-14T12:02:05.129Z,99.60
2018-12-14T12:04:33.428Z,99.80
2018-12-14T12:06:59.799Z,99.80
2018-12-14T12:09:25.914Z,99.60
2018-12-14T12:11:57.623Z,99.40
2018-12-14T12:14:27.106Z,99.20
2018-12-14T12:16:53.501Z,99.10
2018-12-14T12:19:20.708Z,98.80
2018-12-14T12:21:46.975Z,98.80
2018-12-14T12:24:13.194Z,99.00
2018-12-14T12:26:39.430Z,99.10
2018-12-14T12:29:06.740Z,99.10
2018-12-14T12:31:34.139Z,99.00
2018-12-14T12:34:01.336Z,99.00
2018-12-14T12:36:35.533Z,98.90
2018-12-14T12:39:03.943Z,98.90
2018-12-14T12:41:36.285Z,98.80
2018-12-14T12:44:02.650Z,99.00
2018-12-14T12:46:28.794Z,98.50
2018-12-14T12:48:55.159Z,98.00
2018-12-14T12:51:21.878Z,98.30
2018-12-14T12:53:54.993Z,98.30
2018-12-14T12:56:23.648Z,98.70
2018-12-14T12:58:54.485Z,98.90
2018-12-14T13:01:20.796Z,98.60
2018-12-14T13:03:47.012Z,98.40
2018-12-14T13:06:17.473Z,98.70
2018-12-14T13:08:43.721Z,98.60
2018-12-14T13:11:10.095Z,98.60
2018-12-14T13:13:37.009Z,98.70
2018-12-14T13:16:03.246Z,98.70
2018-12-14T13:18:29.785Z,98.40
2018-12-14T13:20:57.985Z,98.90
2018-12-14T13:23:24.171Z,98.60
2018-12-14T13:25:50.216Z,98.50
2018-12-14T13:28:16.952Z,98.60
2018-12-14T13:30:45.148Z,98.50
2018-12-14T13:33:13.502Z,98.40
2018-12-14T13:35:39.866Z,98.10
2018-12-14T13:38:06.138Z,97.80
2018-12-14T13:40:32.629Z,97.80
2018-12-14T13:42:59.062Z,97.90
2018-12-14T13:45:25.468Z,97.80
2018-12-14T13:47:51.702Z,98.10
2018-12-14T13:50:17.851Z,98.20
2018-12-14T13:52:51.282Z,98.00
2018-12-14T13:55:21.701Z,98.20
2018-12-14T13:57:48.004Z,98.10
2018-12-14T14:00:15.352Z,98.20
2018-12-14T14:02:41.503Z,98.10
2018-12-14T14:05:08.719Z,98.20
2018-12-14T14:07:34.991Z,98.30
2018-12-14T14:10:03.910Z,98.50
2018-12-14T14:12:31.246Z,98.50
2018-12-14T14:15:00.875Z,98.10
2018-12-14T14:17:26.928Z,97.70
2018-12-14T14:19:53.351Z,97.70
2018-12-14T14:22:20.196Z,97.90
2018-12-14T14:24:46.572Z,98.00
2018-12-14T14:27:12.910Z,98.10
2018-12-14T14:29:41.279Z,98.10
2018-12-14T14:32:07.829Z,98.20
2018-12-14T14:34:34.280Z,98.10
2018-12-14T14:37:10.287Z,98.00
2018-12-14T14:39:44.887Z,98.30
2018-12-14T14:42:14.322Z,98.20
2018-12-14T14:44:44.467Z,98.20
2018-12-14T14:47:10.671Z,98.10
2018-12-14T14:49:37.965Z,98.00
2018-12-14T14:52:05.035Z,98.00
2018-12-14T14:54:31.202Z,97.90
2018-12-14T14:56:58.584Z,98.00
2018-12-14T14:59:25.894Z,97.90
2018-12-14T15:01:52.059Z,97.80
2018-12-14T15:04:18.488Z,97.80
2018-12-14T15:06:44.740Z,98.00
2018-12-14T15:09:11.119Z,98.30
2018-12-14T15:11:37.455Z,98.30
2018-12-14T15:14:05.088Z,98.60
2018-12-14T15:16:32.419Z,98.40
2018-12-14T15:19:00.550Z,98.20
2018-12-14T15:21:26.860Z,98.30
2018-12-14T15:23:54.332Z,98.50
2018-12-14T15:26:20.732Z,98.40
2018-12-14T15:28:47.202Z,98.60
2018-12-14T15:31:13.485Z,98.70
2018-12-14T15:33:39.990Z,99.10
2018-12-14T15:36:06.460Z,99.30
2018-12-14T15:38:32.671Z,99.30
2018-12-14T15:40:59.490Z,99.10
2018-12-14T15:43:26.677Z,99.20
2018-12-14T15:45:57.136Z,98.80
2018-12-14T15:48:23.946Z,98.50
2018-12-14T15:50:50.375Z,98.80
2018-12-14T15:56:19.834Z,99.20
2018-12-14T15:58:46.365Z,99.10
2018-12-14T16:01:16.576Z,99.10
2018-12-14T16:03:52.058Z,99.10
2018-12-14T16:06:26.369Z,98.90
2018-12-14T16:08:58.433Z,99.10
2018-12-14T16:11:39.799Z,99.20
2018-12-14T16:14:06.452Z,99.20
2018-12-14T16:16:34.051Z,99.40
2018-12-14T16:19:01.373Z,99.30
2018-12-14T16:21:31.252Z,99.40
2018-12-14T16:24:03.550Z,99.20
2018-12-14T16:26:30.061Z,99.10
2018-12-14T16:28:56.395Z,99.50
2018-12-14T16:31:22.758Z,99.40
2018-12-14T16:33:50.625Z,99.30
2018-12-14T16:36:17.014Z,99.30
2018-12-14T16:38:43.263Z,99.50
2018-12-14T16:41:09.532Z,99.70
2018-12-14T16:43:38.692Z,99.70
2018-12-14T16:46:06.137Z,99.70
2018-12-14T16:48:35.454Z,99.90
2018-12-14T16:51:03.915Z,99.90
2018-12-14T16:53:32.188Z,99.90
2018-12-14T16:55:59.316Z,99.80
2018-12-14T16:58:26.625Z,99.90
2018-12-14T17:00:55.149Z,99.80
2018-12-14T17:03:21.721Z,99.50
2018-12-14T17:05:48.079Z,99.60
2018-12-14T17:08:14.245Z,99.60
2018-12-14T17:10:41.654Z,99.60
2018-12-14T17:13:08.018Z,99.30
2018-12-14T17:15:34.396Z,98.90
2018-12-14T17:18:00.630Z,99.10
2018-12-14T17:20:27.124Z,99.20
2018-12-14T17:22:59.520Z,99.30
2018-12-14T17:25:29.817Z,99.40
2018-12-14T17:27:56.104Z,99.90
2018-12-14T17:30:30.478Z,99.80
2018-12-14T17:32:56.728Z,99.50
2018-12-14T17:35:23.060Z,99.20
2018-12-14T17:37:49.427Z,99.30
2018-12-14T17:40:15.905Z,99.20
2018-12-14T17:42:43.348Z,99.00
2018-12-14T17:45:11.730Z,99.30
2018-12-14T17:47:38.329Z,99.50
2018-12-14T17:50:06.556Z,99.20
2018-12-14T17:52:32.747Z,99.00
2018-12-14T17:54:59.032Z,98.90
2018-12-14T17:57:25.324Z,98.60
2018-12-14T17:59:51.626Z,98.90
2018-12-14T18:02:20.119Z,98.80
2018-12-14T18:04:48.538Z,98.80
2018-12-14T18:07:15.028Z,98.50
2018-12-14T18:09:41.290Z,98.40
2018-12-14T18:12:07.524Z,98.80
2018-12-14T18:14:33.940Z,98.60
2018-12-14T18:17:01.311Z,98.70
2018-12-14T18:19:29.720Z,98.40
2018-12-14T18:21:57.012Z,98.40
2018-12-14T18:24:23.321Z,98.20
2018-12-14T18:26:49.710Z,98.30
2018-12-14T18:29:15.957Z,98.40
2018-12-14T18:31:42.304Z,98.40
2018-12-14T18:34:08.698Z,98.50
2018-12-14T18:36:37.108Z,98.30
2018-12-14T18:39:05.895Z,98.20
2018-12-14T18:41:32.178Z,98.60
2018-12-14T18:44:00.467Z,98.60
2018-12-14T18:46:35.967Z,98.60
2018-12-14T18:49:07.279Z,98.70
2018-12-14T18:51:33.655Z,98.60
2018-12-14T18:56:55.616Z,99.00
2018-12-14T18:59:22.386Z,98.90
2018-12-14T19:01:54.703Z,98.60
2018-12-14T19:04:25.899Z,98.60
2018-12-14T19:06:52.613Z,98.60
2018-12-14T19:09:19.114Z,98.70
2018-12-14T19:11:45.373Z,99.00
2018-12-14T19:14:11.788Z,98.60
2018-12-14T19:16:38.210Z,98.70
2018-12-14T19:19:05.859Z,98.90
2018-12-14T19:21:33.285Z,99.20
2018-12-14T19:24:00.995Z,99.40
2018-12-14T19:26:27.308Z,99.60
2018-12-14T19:28:54.409Z,99.80
2018-12-14T19:31:22.115Z,99.80
2018-12-14T19:33:49.765Z,99.50
2018-12-14T19:36:23.752Z,99.60
2018-12-14T19:38:55.553Z,99.60
2018-12-14T19:41:22.505Z,99.50
2018-12-14T19:43:50.216Z,99.20
2018-12-14T19:46:16.722Z,99.20
2018-12-14T19:48:43.216Z,99.20
2018-12-14T19:51:09.638Z,98.90
2018-12-14T19:53:36.157Z,99.20
2018-12-14T19:56:02.825Z,99.30
2018-12-14T19:58:29.661Z,99.00
2018-12-14T20:00:56.015Z,99.10
2018-12-14T20:03:22.519Z,98.80
2018-12-14T20:05:49.875Z,99.90
2018-12-14T20:08:16.333Z,99.80
2018-12-14T20:10:42.965Z,99.20
2018-12-14T20:13:12.704Z,99.00
2018-12-14T20:15:39.418Z,99.00
2018-12-14T20:21:00.998Z,98.90
2018-12-14T20:23:27.614Z,98.60
2018-12-14T20:25:54.288Z,98.80
2018-12-14T20:28:20.685Z,98.90
2018-12-14T20:30:48.981Z,99.20
2018-12-14T20:33:21.245Z,99.40
2018-12-14T20:35:48.997Z,99.50
2018-12-14T20:38:15.479Z,99.40
2018-12-14T20:40:43.722Z,99.20
2018-12-14T20:43:12.253Z,99.40
2018-12-14T20:45:39.923Z,99.90
2018-12-14T20:48:11.868Z,99.90
2018-12-14T20:50:38.203Z,99.90
2018-12-14T20:53:04.334Z,99.90
2018-12-14T20:55:30.697Z,99.90
2018-12-14T20:57:57.007Z,99.90
2018-12-14T21:00:24.596Z,99.90
2018-12-14T21:02:52.638Z,99.90
2018-12-14T21:05:19.991Z,99.90
2018-12-14T21:07:47.639Z,99.90
2018-12-14T21:10:14.076Z,99.90
2018-12-14T21:12:40.416Z,99.90
2018-12-14T21:15:07.697Z,99.90
2018-12-14T21:17:35.364Z,99.90
2018-12-14T21:20:01.972Z,99.90
2018-12-14T21:22:28.994Z,99.90
2018-12-14T21:24:55.202Z,99.90
2018-12-14T21:27:22.351Z,99.90
2018-12-14T21:29:48.961Z,99.90
2018-12-14T21:32:15.191Z,99.90
2018-12-14T21:34:41.334Z,99.90
2018-12-14T21:37:08.721Z,99.90
2018-12-14T21:39:35.064Z,99.90
2018-12-14T21:42:01.296Z,99.90
2018-12-14T21:44:33.549Z,99.90
2018-12-14T21:46:59.896Z,99.90
2018-12-14T21:49:26.239Z,99.90
2018-12-14T21:51:52.447Z,99.90
2018-12-14T21:54:19.397Z,99.90
2018-12-14T21:56:46.704Z,99.90
2018-12-14T21:59:12.905Z,99.90
2018-12-14T22:01:40.258Z,99.90
2018-12-14T22:04:07.022Z,99.90
2018-12-14T22:06:35.816Z,99.90
2018-12-14T22:09:06.149Z,99.90
2018-12-14T22:11:32.689Z,99.90
2018-12-14T22:13:58.968Z,99.90
2018-12-14T22:16:24.990Z,99.90
2018-12-14T22:18:51.296Z,99.90
2018-12-14T22:21:17.525Z,99.90
2018-12-14T22:23:43.696Z,99.90
2018-12-14T22:26:09.877Z,99.90
2018-12-14T22:28:36.181Z,99.90
2018-12-14T22:31:04.461Z,99.90
2018-12-14T22:33:31.863Z,99.90
2018-12-14T22:35:59.130Z,99.90
2018-12-14T22:38:27.289Z,99.90
2018-12-14T22:40:59.361Z,99.90
2018-12-14T22:43:25.690Z,99.90
2018-12-14T22:45:51.969Z,99.90
2018-12-14T22:48:18.054Z,99.90
2018-12-14T22:50:44.231Z,99.90
2018-12-14T22:53:10.345Z,99.90
2018-12-14T22:55:36.621Z,99.90
2018-12-14T22:58:03.679Z,99.90
2018-12-14T23:00:34.142Z,99.90
2018-12-14T23:03:00.404Z,99.90
2018-12-14T23:05:27.801Z,99.90
2018-12-14T23:07:55.194Z,99.90
2018-12-14T23:10:21.301Z,99.90
2018-12-14T23:12:47.546Z,99.90
2018-12-14T23:15:14.482Z,99.90
2018-12-14T23:17:40.506Z,99.90
2018-12-14T23:20:07.655Z,99.90
2018-12-14T23:22:34.141Z,99.90
2018-12-14T23:25:00.437Z,99.90
2018-12-14T23:27:26.676Z,99.90
2018-12-14T23:29:52.743Z,99.90
2018-12-14T23:32:24.654Z,99.90
2018-12-14T23:34:50.818Z,99.90
2018-12-14T23:37:18.194Z,99.90
2018-12-14T23:39:45.479Z,99.90
2018-12-14T23:42:12.799Z,99.90
2018-12-14T23:44:38.994Z,99.90
2018-12-14T23:47:06.618Z,99.90
2018-12-14T23:49:34.962Z,99.90
2018-12-14T23:52:01.120Z,99.90
2018-12-14T23:54:29.374Z,99.90
2018-12-14T23:56:55.753Z,99.90
2018-12-14T23:59:22.058Z,99.90
